Richmond Hill, Georgia
Current Conditions -  °F | °C
As of 9:13 AM on Monday 24 Nov 2014 (Local Time) from KSVN Reporting Station
Broken Clouds Broken Clouds  
Wind Chill: 72°   Ceiling: 1500
Heat Index: 72°   Visibility: 10mi
Dew Point: 72°   Wind: 9mph
Humidity: 100%   Direction: 190°S
Pressure: 29.88"   Gusts: NA
Location:  31.94°N, 81.3°W
Report Text: KSVN 241413Z AUTO 19008KT 10SM SCT009 BKN015 22/22 A2988 RMK AO2 CIG 009V015
Loading
Personal Weather Stations






























Interactive Weather Map New forecast layout! Learn more

10-Day Weather Forecast

Advertisements
Track Severe Weather on mobile